createdAt,value
2018-12-15T00:00:51.966Z,0.84
2018-12-15T00:02:01.917Z,0.81
2018-12-15T00:03:11.845Z,0.81
2018-12-15T00:04:21.781Z,0.85
2018-12-15T00:05:31.471Z,0.78
2018-12-15T00:06:41.426Z,0.84
2018-12-15T00:07:51.120Z,0.86
2018-12-15T00:09:01.048Z,0.82
2018-12-15T00:10:11.003Z,0.74
2018-12-15T00:11:20.687Z,0.86
2018-12-15T00:12:30.625Z,0.81
2018-12-15T00:13:40.311Z,0.76
2018-12-15T00:14:50.242Z,0.78
2018-12-15T00:16:00.172Z,0.81
2018-12-15T00:17:10.644Z,0.82
2018-12-15T00:18:20.322Z,0.76
2018-12-15T00:19:30.269Z,0.67
2018-12-15T00:20:40.201Z,0.7
2018-12-15T00:21:49.947Z,0.7
2018-12-15T00:22:59.639Z,0.74
2018-12-15T00:24:09.585Z,0.74
2018-12-15T00:25:19.522Z,0.68
2018-12-15T00:26:29.463Z,0.7
2018-12-15T00:27:38.650Z,0.81
2018-12-15T00:28:48.331Z,0.71
2018-12-15T00:29:58.266Z,0.73
2018-12-15T00:31:07.975Z,0.71
2018-12-15T00:32:17.416Z,0.71
2018-12-15T00:33:27.365Z,0.71
2018-12-15T00:34:37.293Z,0.68
2018-12-15T00:35:46.972Z,0.76
2018-12-15T00:36:56.410Z,0.85
2018-12-15T00:38:05.863Z,0.67
2018-12-15T00:39:15.797Z,0.74
2018-12-15T00:40:25.733Z,0.73
2018-12-15T00:41:35.420Z,0.68
2018-12-15T00:42:45.103Z,0.64
2018-12-15T00:43:54.800Z,0.68
2018-12-15T00:45:04.738Z,0.7
2018-12-15T00:46:14.674Z,0.7
2018-12-15T00:47:24.361Z,0.68
2018-12-15T00:48:34.043Z,0.76
2018-12-15T00:49:43.481Z,0.71
2018-12-15T00:50:53.161Z,0.67
2018-12-15T00:52:03.088Z,0.67
2018-12-15T00:53:12.759Z,0.67
2018-12-15T00:54:22.704Z,0.68
2018-12-15T00:55:32.392Z,0.76
2018-12-15T00:56:42.087Z,0.76
2018-12-15T00:57:52.008Z,0.71
2018-12-15T00:59:01.936Z,0.68
2018-12-15T01:00:11.921Z,0.71
2018-12-15T01:01:21.866Z,0.77
2018-12-15T01:02:31.548Z,0.71
2018-12-15T01:03:41.482Z,0.74
2018-12-15T01:04:51.424Z,0.76
2018-12-15T01:06:00.868Z,0.76
2018-12-15T01:07:10.813Z,0.71
2018-12-15T01:08:20.521Z,0.73
2018-12-15T01:09:30.206Z,0.68
2018-12-15T01:10:39.643Z,0.68
2018-12-15T01:11:49.591Z,0.7
2018-12-15T01:12:59.287Z,0.66
2018-12-15T01:14:09.211Z,0.73
2018-12-15T01:15:19.163Z,0.76
2018-12-15T01:16:29.109Z,0.73
2018-12-15T01:17:39.039Z,0.7
2018-12-15T01:18:48.488Z,0.64
2018-12-15T01:19:58.179Z,0.63
2018-12-15T01:21:07.858Z,0.64
2018-12-15T01:22:17.549Z,0.66
2018-12-15T01:23:27.240Z,0.56
2018-12-15T01:24:36.683Z,0.61
2018-12-15T01:25:46.621Z,0.63
2018-12-15T01:26:56.053Z,0.58
2018-12-15T01:28:05.759Z,0.64
2018-12-15T01:29:15.441Z,0.68
2018-12-15T01:30:25.110Z,0.71
2018-12-15T01:31:35.079Z,0.7
2018-12-15T01:32:45.028Z,0.73
2018-12-15T01:33:54.466Z,0.73
2018-12-15T01:35:04.139Z,0.73
2018-12-15T01:36:13.829Z,0.74
2018-12-15T01:37:23.511Z,0.68
2018-12-15T01:38:33.436Z,0.71
2018-12-15T01:39:43.370Z,0.64
2018-12-15T01:40:53.073Z,0.7
2018-12-15T01:42:02.807Z,0.7
2018-12-15T01:43:12.750Z,0.7
2018-12-15T01:44:22.436Z,0.76
2018-12-15T01:45:32.384Z,0.73
2018-12-15T01:46:41.817Z,0.74
2018-12-15T01:47:51.755Z,0.66
2018-12-15T01:49:01.698Z,0.68
2018-12-15T01:50:11.139Z,0.71
2018-12-15T01:51:20.814Z,0.68
2018-12-15T01:52:30.508Z,0.74
2018-12-15T01:53:39.962Z,0.63
2018-12-15T01:54:49.895Z,0.64
2018-12-15T01:55:59.573Z,0.71
2018-12-15T01:57:09.503Z,0.73
2018-12-15T01:58:19.425Z,0.7
2018-12-15T01:59:28.866Z,0.67
2018-12-15T02:00:38.039Z,0.7
2018-12-15T02:01:47.990Z,0.7
2018-12-15T02:02:57.929Z,0.73
2018-12-15T02:04:07.866Z,0.7
2018-12-15T02:05:17.805Z,0.73
2018-12-15T02:06:27.743Z,0.73
2018-12-15T02:07:37.202Z,0.73
2018-12-15T02:08:47.132Z,0.74
2018-12-15T02:09:57.080Z,0.68
2018-12-15T02:11:06.788Z,0.71
2018-12-15T02:12:16.484Z,0.68
2018-12-15T02:13:26.414Z,0.68
2018-12-15T02:14:35.855Z,0.7
2018-12-15T02:15:45.782Z,0.67
2018-12-15T02:16:55.720Z,0.59
2018-12-15T02:18:05.418Z,0.59
2018-12-15T02:19:15.127Z,0.64
2018-12-15T02:20:24.802Z,0.58
2018-12-15T02:21:34.743Z,0.61
2018-12-15T02:22:44.687Z,0.67
2018-12-15T02:23:54.629Z,0.66
2018-12-15T02:25:04.307Z,0.58
2018-12-15T02:26:14.257Z,0.63
2018-12-15T02:27:23.952Z,0.66
2018-12-15T02:28:33.889Z,0.67
2018-12-15T02:29:43.825Z,0.71
2018-12-15T02:30:53.577Z,0.71
2018-12-15T02:32:03.275Z,0.73
2018-12-15T02:33:12.959Z,0.67
2018-12-15T02:34:22.885Z,0.7
2018-12-15T02:35:32.825Z,0.74
2018-12-15T02:36:42.781Z,0.71
2018-12-15T02:37:52.713Z,0.61
2018-12-15T02:39:02.674Z,0.66
2018-12-15T02:40:12.598Z,0.66
2018-12-15T02:41:22.280Z,0.67
2018-12-15T02:42:32.226Z,0.67
2018-12-15T02:43:41.663Z,0.68
2018-12-15T02:44:51.350Z,0.67
2018-12-15T02:46:01.286Z,0.68
2018-12-15T02:47:11.214Z,0.67
2018-12-15T02:48:21.166Z,0.63
2018-12-15T02:49:31.094Z,0.56
2018-12-15T02:50:40.807Z,0.59
2018-12-15T02:51:50.510Z,0.59
2018-12-15T02:53:00.438Z,0.59
2018-12-15T02:54:10.385Z,0.64
2018-12-15T02:55:20.067Z,0.68
2018-12-15T02:56:30.001Z,0.67
2018-12-15T02:57:39.946Z,0.68
2018-12-15T02:58:49.909Z,0.68
2018-12-15T02:59:59.840Z,0.71
2018-12-15T03:01:09.531Z,0.73
2018-12-15T03:02:18.961Z,0.71
2018-12-15T03:03:28.902Z,0.66
2018-12-15T03:04:38.581Z,0.71
2018-12-15T03:05:48.278Z,0.7
2018-12-15T03:06:58.232Z,0.7
2018-12-15T03:08:07.927Z,0.7
2018-12-15T03:09:17.610Z,0.74
2018-12-15T03:10:27.565Z,0.73
2018-12-15T03:11:37.267Z,0.74
2018-12-15T03:12:47.237Z,0.7
2018-12-15T03:13:56.658Z,0.77
2018-12-15T03:15:06.358Z,0.67
2018-12-15T03:16:16.283Z,0.71
2018-12-15T03:17:25.967Z,0.71
2018-12-15T03:18:35.910Z,0.7
2018-12-15T03:19:45.850Z,0.66
2018-12-15T03:20:55.048Z,0.68
2018-12-15T03:22:04.977Z,0.77
2018-12-15T03:23:14.913Z,0.73
2018-12-15T03:24:24.623Z,0.68
2018-12-15T03:25:34.311Z,0.85
2018-12-15T03:26:44.245Z,0.78
2018-12-15T03:27:54.177Z,0.82
2018-12-15T03:29:04.114Z,0.77
2018-12-15T03:30:13.836Z,0.81
2018-12-15T03:31:23.809Z,0.82
2018-12-15T03:32:33.900Z,0.81
2018-12-15T03:33:43.845Z,0.84
2018-12-15T03:34:53.782Z,0.82
2018-12-15T03:36:03.218Z,0.78
2018-12-15T03:37:12.911Z,0.91
2018-12-15T03:38:22.852Z,0.92
2018-12-15T03:39:32.542Z,0.89
2018-12-15T03:40:41.989Z,0.94
2018-12-15T03:41:51.676Z,0.94
2018-12-15T03:43:01.625Z,0.91
2018-12-15T03:44:11.324Z,0.85
2018-12-15T03:45:21.271Z,0.99
2018-12-15T03:46:30.954Z,0.91
2018-12-15T03:47:40.886Z,0.92
2018-12-15T03:48:50.933Z,0.96
2018-12-15T03:50:00.882Z,0.94
2018-12-15T03:51:10.819Z,0.88
2018-12-15T03:52:20.776Z,1.03
2018-12-15T03:53:30.709Z,1
2018-12-15T03:54:40.650Z,1
2018-12-15T03:55:50.595Z,0.96
2018-12-15T03:57:00.545Z,0.99
2018-12-15T03:58:10.472Z,0.95
2018-12-15T03:59:20.152Z,0.95
2018-12-15T04:00:30.101Z,1.06
2018-12-15T04:01:39.888Z,1
2018-12-15T04:02:49.827Z,0.92
2018-12-15T04:03:59.777Z,0.95
2018-12-15T04:05:09.718Z,0.91
2018-12-15T04:06:19.429Z,0.99
2018-12-15T04:07:29.385Z,1.02
2018-12-15T04:08:39.396Z,0.95
2018-12-15T04:09:49.328Z,1
2018-12-15T04:10:58.759Z,0.96
2018-12-15T04:12:08.223Z,0.89
2018-12-15T04:13:18.191Z,1
2018-12-15T04:14:28.129Z,0.99
2018-12-15T04:15:38.067Z,1.04
2018-12-15T04:16:48.025Z,0.95
2018-12-15T04:18:03.637Z,0.94
2018-12-15T04:19:13.533Z,0.94
2018-12-15T04:20:23.464Z,1.03
2018-12-15T04:21:33.403Z,1.06
2018-12-15T04:22:42.842Z,1.04
2018-12-15T04:23:52.782Z,0.99
2018-12-15T04:25:02.216Z,0.94
2018-12-15T04:26:11.895Z,0.95
2018-12-15T04:27:21.842Z,1.07
2018-12-15T04:28:31.521Z,0.96
2018-12-15T04:29:41.183Z,1.09
2018-12-15T04:30:50.630Z,0.96
2018-12-15T04:32:00.319Z,1.06
2018-12-15T04:33:09.999Z,1.03
2018-12-15T04:34:19.945Z,1.06
2018-12-15T04:35:29.874Z,0.99
2018-12-15T04:36:39.333Z,1.03
2018-12-15T04:37:49.012Z,1.12
2018-12-15T04:38:58.942Z,1.1
2018-12-15T04:40:08.874Z,0.95
2018-12-15T04:41:18.559Z,0.95
2018-12-15T04:42:28.511Z,1.03
2018-12-15T04:43:38.205Z,1.04
2018-12-15T04:44:48.162Z,1.02
2018-12-15T04:45:58.101Z,0.99
2018-12-15T04:47:08.065Z,0.96
2018-12-15T04:48:18.010Z,1.06
2018-12-15T04:49:27.951Z,1.02
2018-12-15T04:50:37.877Z,0.95
2018-12-15T04:51:47.851Z,0.96
2018-12-15T04:52:57.533Z,1.1
2018-12-15T04:54:07.222Z,1.03
2018-12-15T04:55:17.179Z,1.06
2018-12-15T04:56:27.127Z,0.91
2018-12-15T04:57:37.078Z,0.94
2018-12-15T04:58:46.760Z,0.95
2018-12-15T04:59:56.499Z,0.92
2018-12-15T05:01:06.446Z,0.95
2018-12-15T05:02:16.388Z,0.94
2018-12-15T05:03:27.476Z,0.85
2018-12-15T05:04:37.417Z,0.82
2018-12-15T05:05:47.365Z,0.82
2018-12-15T05:06:57.327Z,0.82
2018-12-15T05:08:06.776Z,0.91
2018-12-15T05:09:16.723Z,0.81
2018-12-15T05:10:26.661Z,0.77
2018-12-15T05:11:36.353Z,0.76
2018-12-15T05:12:46.053Z,0.78
2018-12-15T05:13:56.011Z,0.84
2018-12-15T05:15:05.942Z,0.84
2018-12-15T05:16:15.629Z,0.82
2018-12-15T05:17:25.316Z,0.86
2018-12-15T05:18:35.005Z,0.82
2018-12-15T05:19:44.935Z,0.84
2018-12-15T05:20:54.631Z,0.77
2018-12-15T05:22:04.081Z,0.82
2018-12-15T05:23:14.032Z,0.82
2018-12-15T05:24:24.049Z,0.86
2018-12-15T05:25:33.485Z,0.82
2018-12-15T05:26:43.163Z,0.92
2018-12-15T05:27:53.098Z,0.92
2018-12-15T05:29:02.546Z,0.85
2018-12-15T05:30:12.472Z,0.86
2018-12-15T05:31:22.432Z,0.91
2018-12-15T05:32:32.367Z,0.95
2018-12-15T05:33:42.299Z,0.86
2018-12-15T05:34:51.729Z,0.89
2018-12-15T05:36:01.683Z,0.94
2018-12-15T05:37:11.643Z,0.95
2018-12-15T05:38:21.575Z,1
2018-12-15T05:39:31.259Z,1.02
2018-12-15T05:40:41.192Z,0.96
2018-12-15T05:41:50.923Z,0.92
2018-12-15T05:43:00.597Z,1.02
2018-12-15T05:44:10.289Z,1.02
2018-12-15T05:45:20.233Z,0.99
2018-12-15T05:46:29.673Z,0.96
2018-12-15T05:47:39.408Z,0.96
2018-12-15T05:48:49.348Z,0.88
2018-12-15T05:49:59.285Z,0.94
2018-12-15T05:51:08.976Z,0.85
2018-12-15T05:52:18.904Z,0.82
2018-12-15T05:53:28.845Z,0.82
2018-12-15T05:54:38.548Z,0.84
2018-12-15T05:55:48.223Z,0.82
2018-12-15T05:56:57.918Z,0.82
2018-12-15T05:58:07.614Z,0.84
2018-12-15T05:59:17.547Z,0.81
2018-12-15T06:00:27.245Z,0.82
2018-12-15T06:01:36.985Z,0.81
2018-12-15T06:02:46.919Z,0.88
2018-12-15T06:03:56.854Z,0.84
2018-12-15T06:05:06.779Z,0.81
2018-12-15T06:06:16.465Z,0.84
2018-12-15T06:07:25.662Z,0.85
2018-12-15T06:08:35.596Z,0.85
2018-12-15T06:09:45.094Z,0.73
2018-12-15T06:10:54.539Z,0.78
2018-12-15T06:12:04.222Z,0.77
2018-12-15T06:13:14.154Z,0.7
2018-12-15T06:14:24.086Z,0.84
2018-12-15T06:15:34.017Z,0.71
2018-12-15T06:16:43.446Z,0.77
2018-12-15T06:17:53.414Z,0.78
2018-12-15T06:19:03.365Z,0.84
2018-12-15T06:20:13.301Z,0.82
2018-12-15T06:21:22.981Z,0.73
2018-12-15T06:22:32.667Z,0.82
2018-12-15T06:23:42.609Z,0.78
2018-12-15T06:24:52.542Z,0.84
2018-12-15T06:26:02.480Z,0.78
2018-12-15T06:27:12.423Z,0.82
2018-12-15T06:28:22.388Z,0.81
2018-12-15T06:29:32.069Z,0.82
2018-12-15T06:30:41.498Z,0.74
2018-12-15T06:31:51.187Z,0.74
2018-12-15T06:33:01.123Z,0.77
2018-12-15T06:34:10.802Z,0.77
2018-12-15T06:35:20.732Z,0.71
2018-12-15T06:36:30.657Z,0.64
2018-12-15T06:37:40.089Z,0.63
2018-12-15T06:38:50.034Z,0.59
2018-12-15T06:39:59.715Z,0.64
2018-12-15T06:41:09.672Z,0.67
2018-12-15T06:42:19.619Z,0.58
2018-12-15T06:43:29.553Z,0.58
2018-12-15T06:44:39.247Z,0.66
2018-12-15T06:45:48.929Z,0.66
2018-12-15T06:46:58.626Z,0.67
2018-12-15T06:48:08.560Z,0.66
2018-12-15T06:49:18.480Z,0.7
2018-12-15T06:50:28.413Z,0.7
2018-12-15T06:51:38.097Z,0.67
2018-12-15T06:52:47.289Z,0.66
2018-12-15T06:53:57.043Z,0.67
2018-12-15T06:55:06.979Z,0.64
2018-12-15T06:56:16.649Z,0.66
2018-12-15T06:57:26.580Z,0.68
2018-12-15T06:58:36.259Z,0.68
2018-12-15T06:59:45.709Z,0.67
2018-12-15T07:00:55.643Z,0.68
2018-12-15T07:02:05.583Z,0.67
2018-12-15T07:03:15.529Z,0.73
2018-12-15T07:04:25.210Z,0.73
2018-12-15T07:05:35.139Z,0.66
2018-12-15T07:06:44.580Z,0.66
2018-12-15T07:07:54.519Z,0.66
2018-12-15T07:09:04.221Z,0.71
2018-12-15T07:10:14.204Z,0.73
2018-12-15T07:11:23.632Z,0.73
2018-12-15T07:12:33.569Z,0.68
2018-12-15T07:13:44.139Z,0.68
2018-12-15T07:14:53.570Z,0.7
2018-12-15T07:16:03.515Z,0.68
2018-12-15T07:17:13.523Z,0.66
2018-12-15T07:18:23.274Z,0.63
2018-12-15T07:19:32.723Z,0.66
2018-12-15T07:20:42.684Z,0.66
2018-12-15T07:21:52.377Z,0.59
2018-12-15T07:23:02.075Z,0.66
2018-12-15T07:24:11.766Z,0.67
2018-12-15T07:25:21.701Z,0.7
2018-12-15T07:26:31.393Z,0.68
2018-12-15T07:27:41.338Z,0.7
2018-12-15T07:28:51.024Z,0.7
2018-12-15T07:30:00.496Z,0.68
2018-12-15T07:31:10.430Z,0.73
2018-12-15T07:32:20.364Z,0.76
2018-12-15T07:33:30.045Z,0.64
2018-12-15T07:34:39.742Z,0.68
2018-12-15T07:35:49.424Z,0.68
2018-12-15T07:36:59.110Z,0.71
2018-12-15T07:38:08.814Z,0.68
2018-12-15T07:39:18.748Z,0.73
2018-12-15T07:40:28.436Z,0.68
2018-12-15T07:41:38.128Z,0.7
2018-12-15T07:42:48.054Z,0.84
2018-12-15T07:43:57.994Z,0.73
2018-12-15T07:45:07.939Z,0.81
2018-12-15T07:46:17.875Z,0.76
2018-12-15T07:47:27.328Z,0.85
2018-12-15T07:48:37.264Z,0.81
2018-12-15T07:49:47.212Z,0.81
2018-12-15T07:50:56.909Z,0.82
2018-12-15T07:52:06.858Z,0.85
2018-12-15T07:53:16.787Z,0.81
2018-12-15T07:54:26.749Z,0.78
2018-12-15T07:55:36.428Z,0.84
2018-12-15T07:56:46.380Z,0.78
2018-12-15T07:57:56.322Z,0.78
2018-12-15T07:59:06.254Z,0.94
2018-12-15T08:00:15.694Z,0.91
2018-12-15T08:01:25.679Z,0.85
2018-12-15T08:02:35.124Z,0.86
2018-12-15T08:03:45.052Z,0.86
2018-12-15T08:04:54.727Z,0.81
2018-12-15T08:06:04.685Z,0.81
2018-12-15T08:07:14.624Z,0.86
2018-12-15T08:08:24.559Z,0.82
2018-12-15T08:09:33.995Z,0.81
2018-12-15T08:10:43.923Z,0.94
2018-12-15T08:11:53.855Z,0.94
2018-12-15T08:13:03.796Z,0.91
2018-12-15T08:14:13.783Z,0.99
2018-12-15T08:15:23.476Z,0.89
2018-12-15T08:16:33.202Z,0.92
2018-12-15T08:17:42.909Z,0.95
2018-12-15T08:18:57.967Z,1.03
2018-12-15T08:20:08.052Z,0.99
2018-12-15T08:21:17.748Z,1.06
2018-12-15T08:22:31.055Z,0.95
2018-12-15T08:23:40.742Z,0.92
2018-12-15T08:24:50.673Z,0.99
2018-12-15T08:26:00.607Z,1.09
2018-12-15T08:27:10.297Z,1.03
2018-12-15T08:28:20.279Z,1.13
2018-12-15T08:29:30.275Z,1.14
2018-12-15T08:30:39.980Z,1.16
2018-12-15T08:31:49.916Z,1.12
2018-12-15T08:32:59.939Z,1.21
2018-12-15T08:34:09.870Z,1.22
2018-12-15T08:35:19.804Z,1.28
2018-12-15T08:36:29.749Z,1.22
2018-12-15T08:37:39.712Z,1.31
2018-12-15T08:38:49.643Z,1.24
2018-12-15T08:39:58.837Z,1.27
2018-12-15T08:41:08.783Z,1.31
2018-12-15T08:42:18.727Z,1.24
2018-12-15T08:43:28.429Z,1.3
2018-12-15T08:44:38.381Z,1.25
2018-12-15T08:45:48.085Z,1.25
2018-12-15T08:46:58.026Z,1.27
2018-12-15T08:48:07.959Z,1.24
2018-12-15T08:49:17.659Z,1.25
2018-12-15T08:50:27.420Z,1.21
2018-12-15T08:51:37.106Z,1.3
2018-12-15T08:52:47.547Z,1.24
2018-12-15T08:53:57.487Z,1.38
2018-12-15T08:55:07.191Z,1.39
2018-12-15T08:56:16.868Z,1.36
2018-12-15T08:57:26.304Z,1.32
2018-12-15T08:58:36.241Z,1.38
2018-12-15T08:59:46.192Z,1.34
2018-12-15T09:00:55.886Z,1.39
2018-12-15T09:02:05.328Z,1.36
2018-12-15T09:03:15.274Z,1.45
2018-12-15T09:04:24.982Z,1.34
2018-12-15T09:05:34.669Z,1.38
2018-12-15T09:06:44.621Z,1.36
2018-12-15T09:07:54.559Z,1.42
2018-12-15T09:09:04.494Z,1.38
2018-12-15T09:10:14.416Z,1.4
2018-12-15T09:11:24.111Z,1.34
2018-12-15T09:12:33.561Z,1.36
2018-12-15T09:13:43.489Z,1.45
2018-12-15T09:14:52.931Z,1.39
2018-12-15T09:16:02.871Z,1.5
2018-12-15T09:17:12.557Z,1.45
2018-12-15T09:18:22.500Z,1.42
2018-12-15T09:19:32.442Z,1.42
2018-12-15T09:20:42.130Z,1.49
2018-12-15T09:21:51.562Z,1.49
2018-12-15T09:23:01.497Z,1.48
2018-12-15T09:24:11.457Z,1.49
2018-12-15T09:25:20.887Z,1.46
2018-12-15T09:26:30.823Z,1.43
2018-12-15T09:27:40.261Z,1.52
2018-12-15T09:28:50.211Z,1.48
2018-12-15T09:29:59.895Z,1.45
2018-12-15T09:31:09.849Z,1.45
2018-12-15T09:32:19.293Z,1.52
2018-12-15T09:33:28.736Z,1.49
2018-12-15T09:34:38.690Z,1.46
2018-12-15T09:35:48.642Z,1.5
2018-12-15T09:36:58.889Z,1.45
2018-12-15T09:38:08.571Z,1.53
2018-12-15T09:39:18.506Z,1.58
2018-12-15T09:40:28.450Z,1.64
2018-12-15T09:41:38.198Z,1.58
2018-12-15T09:42:48.153Z,1.56
2018-12-15T09:43:57.676Z,1.6
2018-12-15T09:45:07.398Z,1.58
2018-12-15T09:46:17.346Z,1.5
2018-12-15T09:47:27.289Z,1.63
2018-12-15T09:48:36.970Z,1.67
2018-12-15T09:49:46.407Z,1.63
2018-12-15T09:50:55.600Z,1.66
2018-12-15T09:52:05.314Z,1.64
2018-12-15T09:53:15.254Z,1.66
2018-12-15T09:54:25.182Z,1.6
2018-12-15T09:55:34.885Z,1.66
2018-12-15T09:56:44.354Z,1.68
2018-12-15T09:57:54.309Z,1.75
2018-12-15T09:59:04.246Z,1.7
2018-12-15T10:00:14.184Z,1.7
2018-12-15T10:01:24.121Z,1.84
2018-12-15T10:02:33.546Z,1.81
2018-12-15T10:03:43.229Z,1.79
2018-12-15T10:04:52.911Z,1.82
2018-12-15T10:06:02.842Z,1.81
2018-12-15T10:07:12.542Z,1.86
2018-12-15T10:08:22.012Z,1.76
2018-12-15T10:09:31.946Z,1.85
2018-12-15T10:10:41.895Z,1.85
2018-12-15T10:11:51.593Z,1.88
2018-12-15T10:13:01.546Z,1.86
2018-12-15T10:14:11.218Z,1.85
2018-12-15T10:15:20.920Z,1.76
2018-12-15T10:16:30.636Z,1.81
2018-12-15T10:17:40.577Z,1.82
2018-12-15T10:18:50.535Z,1.84
2018-12-15T10:20:00.471Z,1.79
2018-12-15T10:21:10.411Z,1.78
2018-12-15T10:22:20.097Z,1.74
2018-12-15T10:23:30.053Z,1.78
2018-12-15T10:24:39.982Z,1.84
2018-12-15T10:25:49.668Z,1.76
2018-12-15T10:26:59.604Z,1.76
2018-12-15T10:28:09.040Z,1.75
2018-12-15T10:29:18.972Z,1.86
2018-12-15T10:30:28.905Z,1.82
2018-12-15T10:31:38.853Z,1.79
2018-12-15T10:32:48.782Z,1.79
2018-12-15T10:33:58.804Z,1.76
2018-12-15T10:35:08.502Z,1.75
2018-12-15T10:36:17.936Z,1.76
2018-12-15T10:37:27.876Z,1.74
2018-12-15T10:38:37.818Z,1.75
2018-12-15T10:39:47.771Z,1.74
2018-12-15T10:40:57.456Z,1.78
2018-12-15T10:42:07.407Z,1.76
2018-12-15T10:43:17.339Z,1.79
2018-12-15T10:44:27.030Z,1.78
2018-12-15T10:45:36.716Z,1.82
2018-12-15T10:46:46.422Z,1.79
2018-12-15T10:47:56.353Z,1.76
2018-12-15T10:49:06.044Z,1.76
2018-12-15T10:50:15.984Z,1.85
2018-12-15T10:51:25.931Z,1.76
2018-12-15T10:52:35.376Z,1.79
2018-12-15T10:53:45.131Z,1.84
2018-12-15T10:54:54.378Z,1.79
2018-12-15T10:56:04.320Z,1.79
2018-12-15T10:57:14.254Z,1.86
2018-12-15T10:58:24.204Z,1.88
2018-12-15T10:59:33.136Z,1.82
2018-12-15T11:00:43.080Z,1.89
2018-12-15T11:01:53.081Z,1.89
2018-12-15T11:03:02.780Z,1.93
2018-12-15T11:04:12.717Z,1.81
2018-12-15T11:05:22.402Z,1.82
2018-12-15T11:06:32.094Z,1.86
2018-12-15T11:07:41.805Z,1.82
2018-12-15T11:08:51.000Z,1.82
2018-12-15T11:10:00.986Z,1.82
2018-12-15T11:11:10.941Z,1.79
2018-12-15T11:12:20.858Z,1.78
2018-12-15T11:13:30.038Z,1.74
2018-12-15T11:14:40.039Z,1.74
2018-12-15T11:15:49.728Z,1.81
2018-12-15T11:16:59.656Z,1.76
2018-12-15T11:18:09.348Z,1.74
2018-12-15T11:19:19.028Z,1.81
2018-12-15T11:20:28.981Z,1.78
2018-12-15T11:21:38.674Z,1.84
2018-12-15T11:22:48.615Z,1.78
2018-12-15T11:23:58.557Z,1.78
2018-12-15T11:25:08.241Z,1.76
2018-12-15T11:26:17.417Z,1.79
2018-12-15T11:27:27.362Z,1.71
2018-12-15T11:28:37.304Z,1.81
2018-12-15T11:29:46.996Z,1.84
2018-12-15T11:30:56.946Z,1.88
2018-12-15T11:32:06.622Z,1.95
2018-12-15T11:33:16.552Z,2.01
2018-12-15T11:34:26.502Z,1.89
2018-12-15T11:35:36.181Z,2.07
2018-12-15T11:36:45.891Z,2.16
2018-12-15T11:37:55.816Z,2.15
2018-12-15T11:39:05.503Z,2.25
2018-12-15T11:40:15.429Z,2.21
2018-12-15T11:41:25.144Z,2.28
2018-12-15T11:42:35.095Z,2.25
2018-12-15T11:43:45.017Z,2.3
2018-12-15T11:44:54.959Z,2.18
2018-12-15T11:46:04.899Z,2.25
2018-12-15T11:47:14.833Z,2.23
2018-12-15T11:48:24.524Z,2.32
2018-12-15T11:49:34.472Z,2.32
2018-12-15T11:50:48.987Z,2.28
2018-12-15T11:51:58.680Z,2.34
2018-12-15T11:53:08.626Z,2.3
2018-12-15T11:54:18.601Z,2.3
2018-12-15T11:55:28.557Z,2.32
2018-12-15T11:56:38.556Z,2.34
2018-12-15T11:57:48.011Z,2.36
2018-12-15T11:58:57.945Z,2.33
2018-12-15T12:00:07.880Z,2.28
2018-12-15T12:01:17.823Z,2.32
2018-12-15T12:02:34.210Z,2.26
2018-12-15T12:03:43.892Z,2.21
2018-12-15T12:04:53.842Z,2.25
2018-12-15T12:06:03.024Z,2.3
2018-12-15T12:07:12.529Z,2.33
2018-12-15T12:08:22.509Z,2.26
2018-12-15T12:09:32.450Z,2.28
2018-12-15T12:10:42.376Z,2.34
2018-12-15T12:11:52.322Z,2.41
2018-12-15T12:13:01.756Z,2.43
2018-12-15T12:14:11.460Z,2.47
2018-12-15T12:15:21.161Z,2.44
2018-12-15T12:16:31.089Z,2.57
2018-12-15T12:17:41.031Z,2.51
2018-12-15T12:18:50.719Z,2.52
2018-12-15T12:20:00.443Z,2.57
2018-12-15T12:21:10.136Z,2.57
2018-12-15T12:22:20.105Z,2.5
2018-12-15T12:23:30.041Z,2.52
2018-12-15T12:24:39.736Z,2.5
2018-12-15T12:25:49.695Z,2.5
2018-12-15T12:26:59.923Z,2.52
2018-12-15T12:28:09.873Z,2.5
2018-12-15T12:29:19.556Z,2.59
2018-12-15T12:30:29.503Z,2.51
2018-12-15T12:31:39.435Z,2.46
2018-12-15T12:32:49.143Z,2.41
2018-12-15T12:33:59.091Z,2.47
2018-12-15T12:35:09.038Z,2.54
2018-12-15T12:36:18.998Z,2.37
2018-12-15T12:37:28.946Z,2.39
2018-12-15T12:38:38.891Z,2.44
2018-12-15T12:39:48.814Z,2.47
2018-12-15T12:40:58.765Z,2.58
2018-12-15T12:42:08.724Z,2.59
2018-12-15T12:43:18.422Z,2.68
2018-12-15T12:44:28.124Z,2.68
2018-12-15T12:45:38.055Z,2.64
2018-12-15T12:46:47.996Z,2.55
2018-12-15T12:47:57.698Z,2.57
2018-12-15T12:49:07.395Z,2.55
2018-12-15T12:50:17.112Z,2.59
2018-12-15T12:51:27.054Z,2.57
2018-12-15T12:52:36.752Z,2.58
2018-12-15T12:53:46.438Z,2.58
2018-12-15T12:54:56.131Z,2.47
2018-12-15T12:56:06.085Z,2.61
2018-12-15T12:57:16.028Z,2.7
2018-12-15T12:58:25.964Z,2.58
2018-12-15T12:59:35.399Z,2.57
2018-12-15T13:00:45.094Z,2.59
2018-12-15T13:01:55.038Z,2.62
2018-12-15T13:03:04.723Z,2.64
2018-12-15T13:04:14.408Z,2.65
2018-12-15T13:05:24.344Z,2.69
2018-12-15T13:06:34.289Z,2.69
2018-12-15T13:07:44.001Z,2.72
2018-12-15T13:08:53.946Z,2.7
2018-12-15T13:10:03.910Z,2.75
2018-12-15T13:11:13.610Z,2.82
2018-12-15T13:12:23.553Z,2.76
2018-12-15T13:13:33.883Z,2.77
2018-12-15T13:14:43.452Z,2.77
2018-12-15T13:15:52.891Z,2.65
2018-12-15T13:17:02.833Z,2.73
2018-12-15T13:18:12.780Z,2.79
2018-12-15T13:19:22.744Z,2.77
2018-12-15T13:20:32.434Z,2.79
2018-12-15T13:21:42.157Z,2.77
2018-12-15T13:22:52.101Z,2.79
2018-12-15T13:24:01.546Z,2.76
2018-12-15T13:25:11.236Z,2.72
2018-12-15T13:26:21.195Z,2.64
2018-12-15T13:27:30.903Z,2.59
2018-12-15T13:28:40.603Z,2.58
2018-12-15T13:29:50.301Z,2.58
2018-12-15T13:31:00.004Z,2.61
2018-12-15T13:32:09.961Z,2.62
2018-12-15T13:33:19.654Z,2.61
2018-12-15T13:34:29.346Z,2.59
2018-12-15T13:35:39.304Z,2.62
2018-12-15T13:36:49.246Z,2.62
2018-12-15T13:37:58.941Z,2.59
2018-12-15T13:39:08.884Z,2.47
2018-12-15T13:40:18.835Z,2.61
2018-12-15T13:41:28.777Z,2.5
2018-12-15T13:42:38.722Z,2.55
2018-12-15T13:43:48.429Z,2.46
2018-12-15T13:44:58.386Z,2.51
2018-12-15T13:46:08.332Z,2.37
2018-12-15T13:47:17.779Z,2.52
2018-12-15T13:48:27.215Z,2.36
2018-12-15T13:49:36.903Z,2.43
2018-12-15T13:50:46.839Z,2.4
2018-12-15T13:51:56.794Z,2.41
2018-12-15T13:53:06.740Z,2.4
2018-12-15T13:54:16.443Z,2.43
2018-12-15T13:55:26.384Z,2.39
2018-12-15T13:56:36.330Z,2.5
2018-12-15T13:57:46.021Z,2.41
2018-12-15T13:58:55.720Z,2.4
2018-12-15T14:00:05.639Z,2.41
2018-12-15T14:01:15.607Z,2.43
2018-12-15T14:02:25.301Z,2.39
2018-12-15T14:03:34.992Z,2.4
2018-12-15T14:04:44.694Z,2.41
2018-12-15T14:05:54.622Z,2.37
2018-12-15T14:07:04.583Z,2.34
2018-12-15T14:08:14.545Z,2.36
2018-12-15T14:09:24.491Z,2.28
2018-12-15T14:10:34.429Z,2.28
2018-12-15T14:11:44.134Z,2.3
2018-12-15T14:12:54.080Z,2.18
2018-12-15T14:14:04.017Z,2.15
2018-12-15T14:15:13.712Z,2.15
2018-12-15T14:16:23.159Z,2.19
2018-12-15T14:17:33.108Z,2.18
2018-12-15T14:18:43.042Z,2.19
2018-12-15T14:19:52.984Z,2.07
2018-12-15T14:21:02.951Z,2.15
2018-12-15T14:22:12.941Z,2.07
2018-12-15T14:23:22.884Z,2.04
2018-12-15T14:24:32.912Z,2.04
2018-12-15T14:25:42.850Z,2.12
2018-12-15T14:26:52.615Z,2.01
2018-12-15T14:28:02.318Z,2.04
2018-12-15T14:29:12.257Z,2.03
2018-12-15T14:30:22.441Z,2.07
2018-12-15T14:31:32.147Z,2.05
2018-12-15T14:32:41.837Z,2.03
2018-12-15T14:33:51.506Z,2.04
2018-12-15T14:35:00.966Z,2.04
2018-12-15T14:36:10.949Z,2.03
2018-12-15T14:37:20.636Z,2.07
2018-12-15T14:38:30.576Z,2.14
2018-12-15T14:39:40.042Z,2.03
2018-12-15T14:40:49.973Z,2.12
2018-12-15T14:41:59.919Z,2.14
2018-12-15T14:43:09.364Z,2.1
2018-12-15T14:44:19.318Z,2.07
2018-12-15T14:45:29.009Z,2.05
2018-12-15T14:46:38.729Z,2.04
2018-12-15T14:47:48.433Z,2.1
2018-12-15T14:48:58.397Z,2.05
2018-12-15T14:50:08.786Z,2.04
2018-12-15T14:51:18.715Z,2.08
2018-12-15T14:52:28.439Z,2.05
2018-12-15T14:53:38.354Z,1.88
2018-12-15T14:54:47.792Z,1.92
2018-12-15T14:55:58.634Z,1.93
2018-12-15T14:57:08.599Z,1.89
2018-12-15T14:58:18.552Z,1.88
2018-12-15T14:59:28.502Z,1.76
2018-12-15T15:00:38.200Z,1.79
2018-12-15T15:01:48.204Z,1.92
2018-12-15T15:02:58.156Z,1.81
2018-12-15T15:04:07.856Z,1.81
2018-12-15T15:05:17.582Z,1.84
2018-12-15T15:06:28.413Z,1.82
2018-12-15T15:07:38.123Z,1.92
2018-12-15T15:08:48.094Z,1.88
2018-12-15T15:09:58.026Z,1.84
2018-12-15T15:11:07.708Z,1.82
2018-12-15T15:12:17.668Z,1.79
2018-12-15T15:13:27.606Z,1.81
2018-12-15T15:14:42.199Z,1.76
2018-12-15T15:15:51.953Z,1.86
2018-12-15T15:17:01.650Z,1.82
2018-12-15T15:18:11.597Z,1.82
2018-12-15T15:19:21.299Z,1.81
2018-12-15T15:20:34.673Z,1.76
2018-12-15T15:21:44.612Z,1.84
2018-12-15T15:22:54.299Z,1.78
2018-12-15T15:24:04.234Z,1.86
2018-12-15T15:25:13.922Z,1.86
2018-12-15T15:26:23.864Z,1.81
2018-12-15T15:27:33.811Z,1.84
2018-12-15T15:28:43.761Z,1.85
2018-12-15T15:29:53.699Z,1.76
2018-12-15T15:31:03.665Z,1.78
2018-12-15T15:32:13.358Z,1.81
2018-12-15T15:33:23.306Z,1.79